Portada
METAR-TAF:

METAR-TAF

Aeropuertos :

Base Aérea de Getafe

Madrid-Getafe, España

latitud: 40-18N, longitud: 003-43W, altitud: 620 m

Observación

El informe se hizo hace 7 horas y 44 minutos, a las 18:00 UTC
Viento 4 kt del este
Temperatura 9°C
Humedad 76%
Presión 1018 hPa
Visibilidad 10 km o más
Nubes dispersas a una altura de 3000 ft
Nubes dispersas a una altura de 4000 ft

METAR: LEGT 231800Z 08004KT 9999 SCT030 SCT040 09/05 Q1018

Hora: 02:44 (01:44 UTC)

Pronóstico

El informe se hizo hace 8 horas y 44 minutos, a las 17:00 UTC
Pronóstico válido del 23 a las 18 UTC al 24 a las 03 UTC
Viento 2 kt con dirección variable
Visibilidad 10 km o más
Nubes dispersas a una altura de 2500 ft
Nubes dispersas a una altura de 4000 ft
Probabilidad 40% :
Temporalmente
del 23 a las 22 UTC al 23 a las 24 UTC
lluvia

TAF: LEGT 231700Z 2318/2403 VRB02KT 9999 SCT025 SCT040 PROB40 TEMPO 2322/2324 RA

Observaciones y pronósticos meteorológicos de más de 4000 aeropuertos (mensajes METAR y TAF).

Los puntos amarillos y rojos representan las estaciones disponibles.

Ponga el ratón en el punto deseado para ver el nombre de la estación.

Haga clic para ver las observaciones y los pronósticos meteorológicos.

Para cambiar el mapa : haga clic en los botones verdes con una cruz de color negro para hacer un zoom, en el botón verde con un guión para alejar o en las flechas verdes para mapas adyacentes.


METAR-TAF: